AirNav   TITAN Aviation Fuels
 
 1063 users online  

T37 Goldthwaite Municipal Airport
Goldthwaite, Texas, USA

GOING TO GOLDTHWAITE?


FAA INFORMATION EFFECTIVE 15 JULY 2021

Location

FAA Identifier: T37
Lat/Long: 31-25-44.6400N 098-36-30.0800W
31-25.744000N 098-36.501333W
31.4290667,-98.6083556
(estimated)
Elevation: 1457.6 ft. / 444.3 m (surveyed)
From city: 2 miles SW of GOLDTHWAITE, TX
Time zone: UTC -5 (UTC -6 during Standard Time)
Zip code: 76844

Airport Operations

Airport use: Open to the public
Activation date: 08/2010
Control tower: no
ARTCC: FORT WORTH CENTER
FSS: FORT WORTH FLIGHT SERVICE STATION
NOTAMs facility: FTW (NOTAM-D service available)
Attendance: 0800-1700
Wind indicator: lighted
Segmented circle: yes
Lights: PAPI RWY 01 & 19 OPR CONSLY.

Airport Communications

CTAF: 122.9
WX AWOS-3P at 81R (13 nm SW): 120.525 (325-372-6027)

Nearby radio navigation aids

VOR radial/distance  VOR name  Freq  Var
AGJr296/28.0GOOCH SPRINGS VORTAC112.5005E
BWDr139/33.0BROWNWOOD VOR/DME108.6008E
LLOr006/39.1LLANO VORTAC108.2008E

Airport Services

Parking: hangars

Runway Information

Runway 1/19

Dimensions: 3200 x 60 ft. / 975 x 18 m
Surface: asphalt, in good condition
Weight bearing capacity: 
Single wheel: 12.5
RUNWAY 1  RUNWAY 19
Latitude: 31-25.485000N31-26.002833N
Longitude: 098-36.560833W098-36.442000W
Elevation: 1445.7 ft.1457.6 ft.
Traffic pattern: leftleft
Markings: basic, in fair conditionbasic, in fair condition
Visual slope indicator: 2-light PAPI on left (3.00 degrees glide path)2-light PAPI on left (3.00 degrees glide path)
Touchdown point: yes, no lightsyes, no lights
Obstructions: 3 ft. fence, 200 ft. from runway, 91 ft. left of centerline
3 FT FENCE 0-200 FT FM THR, 91 FT L.
50 ft. tree, 1133 ft. from runway, 32 ft. left of centerline, 18:1 slope to clear

Airport Ownership and Management from official FAA records

Ownership: Publicly-owned
Owner: CITY OF GOLDTHWAITE
PO BOX 450
GOLDTHWAITE, TX 76844-0450
Phone 325-648-3186
Manager: ROBERT LINDSEY
PO BOX 450
GOLDTHWAITE, TX 76844-0450
Phone 325-648-3186
CITY MGR

Airport Operational Statistics

Aircraft based on the field: 9
Single engine airplanes: 9
    
Aircraft operations: avg 52/week *
67% local general aviation
33% transient general aviation
* for 12-month period ending 13 September 2017

Additional Remarks

RWY 01 HAS 4 FT FENCE AND ISOLD + 18 FT TREES 400-475 FT FM THR ACRS APCH.
DEER ON & INVOF ARPT.
FOR CD CTC FORT WORTH ARTCC AT 817-858-7584.

Instrument Procedures

There are no published instrument procedures at T37.

Some nearby airports with instrument procedures:

KMNZ - Hamilton Municipal Airport (27 nm NE)
KBWD - Brownwood Regional Airport (28 nm NW)
KLZZ - Lampasas Airport (29 nm SE)
KMKN - Comanche County-City Airport (29 nm N)
KAQO - Llano Municipal Airport (39 nm S)
 
Loc | Ops | Rwys | IFR | FBO | Links
Com | Nav | Svcs | Stats | Notes
Aerial photo
WARNING: Photo may not be current or correct
Aerial photo of T37 (Goldthwaite Municipal Airport)
Photo taken 20-Sep-2010

Do you have a better or more recent aerial photo of Goldthwaite Municipal Airport that you would like to share? If so, please send us your photo.

 
Sectional chart

 
Airport distance calculator
Flying to Goldthwaite Municipal Airport? Find the distance to fly.

From to T37

Sunrise and sunset
Times for 02-Aug-2021
 Local
(UTC-5)
 Zulu
(UTC)
Morning civil twilight06:2611:26
Sunrise06:5211:52
Sunset20:2901:29
Evening civil twilight20:5501:55

Current date and time
Zulu (UTC)  03-Aug-2021 01:54:48
Local (UTC-5)  02-Aug-2021 20:54:48
 
METAR
KMNZ 
27nm NE 
030135Z AUTO 02005KT CLR 27/19 A3003 RMK AO2 T02670188 PWINO
KLZZ 
29nm SE 
030115Z AUTO 00000KT 10SM SCT044 BKN055 OVC070 26/22 A2998 RMK AO2 T02620217
KMKN 
29nm N 
030135Z AUTO 04004KT 10SM CLR 25/16 A3004 RMK AO2 T02520162
KAQO 
39nm S 
030135Z AUTO 00000KT 7SM OVC060 27/22 A3000 RMK AO2
KBBD 
40nm W 
030135Z AUTO RMK AO2 PNO PWINO TSNO
KGOP 
42nm E 
030135Z AUTO 36003KT 10SM SCT045 26/22 A3002 RMK AO2
KGRK 
45nm SE 
030111Z AUTO 00000KT 9SM OVC050 27/22 A2998 RMK AO2 SLP142
KBMQ 
46nm SE 
030053Z AUTO 04005KT 10SM OVC070 27/22 A3002 RMK AO2 SLP149 T02720217
KCOM 
48nm NW 
030135Z AUTO 04003KT 10SM CLR 26/14 A3006 RMK AO2 T02610135
KHLR 
49nm E 
030133Z AUTO 09008KT 5SM HZ BKN033 27/22 A2999 RMK AO2 SLP145 TSNO $
TAF
KBBD 
40nm W 
021740Z 0218/0318 VRB04KT P6SM VCSH SCT028 BKN035 TEMPO 0218/0220 BKN028 FM022000 01006KT P6SM VCTS BKN040CB FM030000 02005KT P6SM SCT100 FM030500 VRB03KT P6SM SCT250 AMD NOT SKED
KGRK 
45nm SE 
030000Z 0300/0406 03005KT 9999 SCT037 BKN047 QNH2998INS TEMPO 0300/0301 VRB10G15KT 8000 -TSRA BKN047CB BECMG 0305/0306 VRB06KT 6000 BR FEW016 SCT024 OVC040 QNH3001INS BECMG 0310/0311 35010G15KT 9999 NSW SCT016 BKN024 QNH2999INS BECMG 0321/0322 VRB06KT 9999 SCT065 QNH2993INS TX31/0321Z TN22/0309Z
NOTAMs
Click for the latest NOTAMs
NOTAMs are issued by the DoD/FAA and will open in a separate window not controlled by AirNav.

 

 
 

Would you like to see your business listed on this page?

 If your business provides an interesting product or service to pilots, flight crews, aircraft, or users of the Goldthwaite Municipal Airport, you should consider listing it here.  To start the listing process, click on the button below
 
Add a business
 

Other Pages about Goldthwaite Municipal Airport

Update a link
 
Copyright © AirNav, LLC. All rights reserved. Privacy Policy  Contact